• Join FlightAware (Why Join?)
  • Login
  • US Flag 
02:22PM EDT


 

Airport Tracker/Info


-or-


 

Live Flight TrackerFlight Track Log ✈ KAL472 ✈ 18-Jul-2013 ✈ VYYY / RGN - RKSI / ICN

Flight Track Log - Related Links

Times and Time Zones

All times are in EDT time to prevent confusion due to time zone crossing. See the KAL472 flight status page for this flight to view local times or setup timezone preferences in your user account.

Time Position Orientation Groundspeed Altitude Reporting Facility
EDT Latitude Longitude Course Direction KTS MPH feet Rate Location/Type
01:22PM 17.0477 96.2870 46° Northeast  Level Estimated
01:23PM 17.1178 96.3639 46° Northeast  Level Estimated
01:24PM 17.1879 96.4409 46° Northeast  Level Estimated
01:25PM 17.2580 96.5180 46° Northeast  Level Estimated
01:26PM 17.3281 96.5951 46° Northeast  Level Estimated
01:27PM 17.3981 96.6723 46° Northeast  Level Estimated
01:28PM 17.4681 96.7496 46° Northeast  Level Estimated
01:29PM 17.5380 96.8269 46° Northeast  Level Estimated
01:30PM 17.6080 96.9042 47° Northeast  Level Estimated
01:31PM 17.6779 96.9817 47° Northeast  Level Estimated
01:32PM 17.7478 97.0592 47° Northeast  Level Estimated
01:33PM 17.8176 97.1367 47° Northeast  Level Estimated
01:34PM 17.8874 97.2143 47° Northeast  Level Estimated
01:35PM 17.9572 97.2920 47° Northeast  Level Estimated
01:36PM 18.0270 97.3697 47° Northeast  Level Estimated
01:37PM 18.0967 97.4475 47° Northeast  Level Estimated
01:38PM 18.1664 97.5254 47° Northeast  Level Estimated
01:39PM 18.2360 97.6033 47° Northeast  Level Estimated
01:40PM 18.3057 97.6813 47° Northeast  Level Estimated
01:41PM 18.3752 97.7593 47° Northeast  Level Estimated
01:42PM 18.4448 97.8374 47° Northeast  Level Estimated
01:43PM 18.5143 97.9156 47° Northeast  Level Estimated
01:44PM 18.5838 97.9938 47° Northeast  Level Estimated
01:45PM 18.6533 98.0721 47° Northeast  Level Estimated
01:46PM 18.7227 98.1505 47° Northeast  Level Estimated
01:47PM 18.7921 98.2289 47° Northeast  Level Estimated
01:48PM 18.8615 98.3074 47° Northeast  Level Estimated
01:49PM 18.9308 98.3859 47° Northeast  Level Estimated
01:50PM 19.0002 98.4645 47° Northeast  Level Estimated
01:51PM 19.0694 98.5432 47° Northeast  Level Estimated
01:52PM 19.1387 98.6220 47° Northeast  Level Estimated
01:53PM 19.2079 98.7008 47° Northeast  Level Estimated
01:54PM 19.2770 98.7796 47° Northeast  Level Estimated
01:55PM 19.3462 98.8586 47° Northeast  Level Estimated
01:56PM 19.4153 98.9376 47° Northeast  Level Estimated
01:57PM 19.4843 99.0167 47° Northeast  Level Estimated
01:58PM 19.5534 99.0958 47° Northeast  Level Estimated
01:59PM 19.6224 99.1751 47° Northeast  Level Estimated
02:00PM 19.6913 99.2543 47° Northeast  Level Estimated
02:01PM 19.7603 99.3337 47° Northeast  Level Estimated
02:02PM 19.8291 99.4131 47° Northeast  Level Estimated
02:03PM 19.8980 99.4926 47° Northeast  Level Estimated
02:04PM 19.9668 99.5722 47° Northeast  Level Estimated
02:05PM 20.0356 99.6518 47° Northeast  Level Estimated
02:06PM 20.1044 99.7315 47° Northeast  Level Estimated
02:06PM 17.6460 101.5060 47° Northeast 456 525 35,000  Level FlightAware
02:07PM 20.1731 99.8113 47° Northeast  Level Estimated
02:07PM 17.7010 101.5690 47° Northeast 454 522 35,000  Level FlightAware
02:08PM 17.7550 101.6330 48° Northeast 445 512 35,000  Level FlightAware
02:08PM 17.8190 101.7080 48° Northeast 445 512 35,000  Level FlightAware
02:09PM 17.8740 101.7720 48° Northeast 445 512 35,000  Level FlightAware
02:10PM 17.9510 101.8610 48° Northeast 444 511 35,000  Level FlightAware
02:11PM 18.0070 101.9270 48° Northeast 446 513 35,000  Level FlightAware
02:12PM 18.1020 102.0390 48° Northeast 446 513 35,000  Level FlightAware
02:13PM 18.1740 102.1230 48° Northeast 444 511 35,000  Level FlightAware
02:13PM 18.2400 102.2010 48° Northeast 443 510 35,000  Level FlightAware
02:14PM 18.2990 102.2700 48° Northeast 443 510 35,000  Level FlightAware
02:15PM 18.3580 102.3390 48° Northeast 443 510 35,000  Level FlightAware
02:16PM 18.4130 102.4040 48° Northeast 442 509 35,000  Level FlightAware
02:16PM 18.4600 102.4600 48° Northeast 442 509 35,000  Level FlightAware
02:17PM 18.5200 102.5300 48° Northeast 440 506 35,000  Level FlightAware
02:18PM 18.5740 102.5940 48° Northeast 440 506 35,000  Level FlightAware
02:18PM 18.6240 102.6530 48° Northeast 444 511 35,000  Level FlightAware
02:19PM 18.6830 102.7230 48° Northeast 448 516 35,000  Level FlightAware
02:21PM 18.7968 102.8348 43° Northeast  Level Estimated
02:22PM 18.8671 102.9040 43° Northeast  Level Estimated
02:23PM 18.9375 102.9733 43° Northeast  Level Estimated
02:24PM 19.0077 103.0426 43° Northeast  Level Estimated
02:24PM 18.9060 102.9890 43° Northeast 453 521 35,000  Level FlightAware
02:27PM 19.0772 103.1576 43° Northeast  Level Estimated
02:27PM 19.3530 103.5190 43° Northeast 455 524 35,000  Level FlightAware
02:28PM 19.1475 103.2270 43° Northeast  Level Estimated
02:28PM 19.4520 103.6410 49° Northeast 460 529 35,000  Level FlightAware
02:29PM 19.5520 103.7080 32° Northeast 464 534 35,000  Level FlightAware
02:30PM 19.6080 103.7520 37° Northeast 464 534 35,000  Level FlightAware
02:30PM 19.6630 103.7940 36° Northeast 464 534 35,000  Level FlightAware
02:31PM 19.7330 103.8480 36° Northeast 464 534 35,000  Level FlightAware
02:32PM 19.7870 103.8890 36° Northeast 464 534 35,000  Level FlightAware
02:32PM 19.8400 103.9300 36° Northeast 464 534 35,000  Level FlightAware
02:33PM 19.9090 103.9840 36° Northeast 464 534 35,000  Level FlightAware
02:34PM 19.9640 104.0260 36° Northeast 464 534 35,000  Level FlightAware
02:34PM 20.0140 104.0650 36° Northeast 464 534 35,000  Level FlightAware
02:35PM 20.0700 104.1090 36° Northeast 464 534 35,000  Level FlightAware
02:36PM 20.1420 104.1640 36° Northeast 464 534 35,000  Level FlightAware
02:36PM 20.1950 104.2060 37° Northeast 464 534 35,000  Level FlightAware
02:37PM 20.2460 104.2440 35° Northeast 464 534 35,000  Level FlightAware
02:38PM 20.3130 104.2970 37° Northeast 464 534 35,000  Level FlightAware
02:38PM 20.3710 104.3420 36° Northeast 464 534 35,000 -60 Level FlightAware
02:41PM 20.5196 104.4928 44° Northeast  Level Estimated
02:42PM 20.5892 104.5636 44° Northeast  Level Estimated
02:43PM 20.6588 104.6345 44° Northeast  Level Estimated
02:44PM 20.7283 104.7054 44° Northeast  Level Estimated
02:45PM 20.7978 104.7764 44° Northeast  Level Estimated
02:46PM 20.8673 104.8475 44° Northeast  Level Estimated
02:47PM 20.9368 104.9186 44° Northeast  Level Estimated
02:48PM 21.0062 104.9898 44° Northeast  Level Estimated
02:49PM 21.0756 105.0611 44° Northeast  Level Estimated
02:50PM 21.1450 105.1324 44° Northeast  Level Estimated
02:51PM 21.2143 105.2038 44° Northeast  Level Estimated
02:52PM 21.2836 105.2753 44° Northeast  Level Estimated
02:53PM 21.3529 105.3468 44° Northeast  Level Estimated
02:54PM 21.4221 105.4184 44° Northeast  Level Estimated
02:55PM 21.4914 105.4901 44° Northeast  Level Estimated
02:56PM 21.5606 105.5618 44° Northeast  Level Estimated
02:57PM 21.6297 105.6336 44° Northeast  Level Estimated
02:58PM 21.6988 105.7055 44° Northeast  Level Estimated
02:59PM 21.7679 105.7774 44° Northeast  Level Estimated
03:00PM 21.8370 105.8494 44° Northeast  Level Estimated
03:01PM 21.9060 105.9215 44° Northeast  Level Estimated
03:02PM 21.9750 105.9936 44° Northeast  Level Estimated
03:03PM 22.0440 106.0659 44° Northeast  Level Estimated
03:04PM 22.1129 106.1382 44° Northeast  Level Estimated
03:05PM 22.1818 106.2105 44° Northeast  Level Estimated
03:06PM 22.2507 106.2829 44° Northeast  Level Estimated
03:07PM 22.3195 106.3554 44° Northeast  Level Estimated
03:08PM 22.3883 106.4280 44° Northeast  Level Estimated
03:09PM 22.4571 106.5007 44° Northeast  Level Estimated
03:10PM 22.5259 106.5734 44° Northeast  Level Estimated
03:11PM 22.5946 106.6462 44° Northeast  Level Estimated
03:12PM 22.6632 106.7190 44° Northeast  Level Estimated
03:13PM 22.7319 106.7920 44° Northeast  Level Estimated
03:14PM 22.8005 106.8650 44° Northeast  Level Estimated
03:15PM 22.8691 106.9381 44° Northeast  Level Estimated
03:16PM 22.9376 107.0112 44° Northeast  Level Estimated
03:17PM 23.0061 107.0844 45° Northeast  Level Estimated
03:18PM 23.0746 107.1578 45° Northeast  Level Estimated
03:19PM 23.1431 107.2311 45° Northeast  Level Estimated
03:20PM 23.2115 107.3046 45° Northeast  Level Estimated
03:21PM 23.2799 107.3781 45° Northeast  Level Estimated
03:22PM 23.3482 107.4517 45° Northeast  Level Estimated
03:23PM 23.4165 107.5254 45° Northeast  Level Estimated
03:24PM 23.4848 107.5992 45° Northeast  Level Estimated
03:25PM 23.5530 107.6730 45° Northeast  Level Estimated
03:26PM 23.6212 107.7469 45° Northeast  Level Estimated
03:27PM 23.6894 107.8209 45° Northeast  Level Estimated
03:28PM 23.7575 107.8949 45° Northeast  Level Estimated
03:29PM 23.8256 107.9691 45° Northeast  Level Estimated
03:30PM 23.8937 108.0433 45° Northeast  Level Estimated
03:31PM 23.9617 108.1176 45° Northeast  Level Estimated
03:32PM 24.0297 108.1920 45° Northeast  Level Estimated
03:33PM 24.0976 108.2664 45° Northeast  Level Estimated
03:34PM 24.1656 108.3410 45° Northeast  Level Estimated
03:35PM 24.2334 108.4156 45° Northeast  Level Estimated
03:36PM 24.3013 108.4903 45° Northeast  Level Estimated
03:37PM 24.3691 108.5650 45° Northeast  Level Estimated
03:38PM 24.4369 108.6399 45° Northeast  Level Estimated
03:39PM 24.5046 108.7148 45° Northeast  Level Estimated
03:40PM 24.5723 108.7898 45° Northeast  Level Estimated
03:41PM 24.6400 108.8649 45° Northeast  Level Estimated
03:42PM 24.7076 108.9401 45° Northeast  Level Estimated
03:43PM 24.7752 109.0154 45° Northeast  Level Estimated
03:44PM 24.8427 109.0907 45° Northeast  Level Estimated
03:45PM 24.9102 109.1661 45° Northeast  Level Estimated
03:46PM 24.9777 109.2416 45° Northeast  Level Estimated
03:47PM 25.0451 109.3172 45° Northeast  Level Estimated
03:48PM 25.1125 109.3929 45° Northeast  Level Estimated
03:49PM 25.1799 109.4686 45° Northeast  Level Estimated
03:50PM 25.2472 109.5445 46° Northeast  Level Estimated
03:51PM 25.3145 109.6204 46° Northeast  Level Estimated
03:52PM 25.3817 109.6964 46° Northeast  Level Estimated
03:53PM 25.4489 109.7725 46° Northeast  Level Estimated
03:54PM 25.5161 109.8487 46° Northeast  Level Estimated
03:55PM 25.5832 109.9249 46° Northeast  Level Estimated
03:56PM 25.6503 110.0013 46° Northeast  Level Estimated
03:57PM 25.7173 110.0777 46° Northeast  Level Estimated
03:58PM 25.7843 110.1542 46° Northeast  Level Estimated
03:59PM 25.8513 110.2308 46° Northeast  Level Estimated
04:00PM 25.9182 110.3075 46° Northeast  Level Estimated
04:01PM 25.9851 110.3843 46° Northeast  Level Estimated
04:02PM 26.0519 110.4612 46° Northeast  Level Estimated
04:03PM 26.1187 110.5381 46° Northeast  Level Estimated
04:04PM 26.1855 110.6152 46° Northeast  Level Estimated
04:05PM 26.2522 110.6923 46° Northeast  Level Estimated
04:06PM 26.3189 110.7695 46° Northeast  Level Estimated
04:07PM 26.3855 110.8468 46° Northeast  Level Estimated
04:08PM 26.4521 110.9242 46° Northeast  Level Estimated
04:09PM 26.5187 111.0017 46° Northeast  Level Estimated
04:10PM 26.5852 111.0793 46° Northeast  Level Estimated
04:11PM 26.6517 111.1570 46° Northeast  Level Estimated
04:12PM 26.7181 111.2347 46° Northeast  Level Estimated
04:13PM 26.7845 111.3126 46° Northeast  Level Estimated
04:14PM 26.8508 111.3905 46° Northeast  Level Estimated
04:15PM 26.9171 111.4685 46° Northeast  Level Estimated
04:16PM 26.9834 111.5467 46° Northeast  Level Estimated
04:17PM 27.0496 111.6249 46° Northeast  Level Estimated
04:18PM 27.1158 111.7032 46° Northeast  Level Estimated
04:19PM 27.1819 111.7816 47° Northeast  Level Estimated
04:20PM 27.2480 111.8601 47° Northeast  Level Estimated
04:21PM 27.3140 111.9387 47° Northeast  Level Estimated
04:22PM 27.3800 112.0173 47° Northeast  Level Estimated
04:23PM 27.4460 112.0961 47° Northeast  Level Estimated
04:24PM 27.5119 112.1750 47° Northeast  Level Estimated
04:25PM 27.5777 112.2539 47° Northeast  Level Estimated
04:26PM 27.6436 112.3330 47° Northeast  Level Estimated
04:27PM 27.7093 112.4121 47° Northeast  Level Estimated
04:28PM 27.7751 112.4914 47° Northeast  Level Estimated
04:29PM 27.8407 112.5707 47° Northeast  Level Estimated
04:30PM 27.9064 112.6502 47° Northeast  Level Estimated
04:31PM 27.9720 112.7297 47° Northeast  Level Estimated
04:32PM 28.0375 112.8093 47° Northeast  Level Estimated
04:33PM 28.1030 112.8891 47° Northeast  Level Estimated
04:34PM 28.1685 112.9689 47° Northeast  Level Estimated
04:35PM 28.2339 113.0488 47° Northeast  Level Estimated
04:36PM 28.2992 113.1289 47° Northeast  Level Estimated
04:37PM 28.3646 113.2090 47° Northeast  Level Estimated
04:38PM 28.4298 113.2892 47° Northeast  Level Estimated
04:39PM 28.4951 113.3695 47° Northeast  Level Estimated
04:40PM 28.5602 113.4499 47° Northeast  Level Estimated
04:41PM 28.6254 113.5304 47° Northeast  Level Estimated
04:42PM 28.6904 113.6111 47° Northeast  Level Estimated
04:43PM 28.7555 113.6918 47° Northeast  Level Estimated
04:44PM 28.8204 113.7726 47° Northeast  Level Estimated
04:45PM 28.8854 113.8535 47° Northeast  Level Estimated
04:46PM 28.9503 113.9345 48° Northeast  Level Estimated
04:47PM 29.0151 114.0157 48° Northeast  Level Estimated
04:48PM 29.0799 114.0969 48° Northeast  Level Estimated
04:49PM 29.1446 114.1782 48° Northeast  Level Estimated
04:50PM 29.2093 114.2597 48° Northeast  Level Estimated
04:51PM 29.2740 114.3412 48° Northeast  Level Estimated
04:52PM 29.3386 114.4228 48° Northeast  Level Estimated
04:53PM 29.4031 114.5045 48° Northeast  Level Estimated
04:54PM 29.4676 114.5864 48° Northeast  Level Estimated
04:55PM 29.5320 114.6683 48° Northeast  Level Estimated
04:56PM 29.5964 114.7504 48° Northeast  Level Estimated
04:57PM 29.6608 114.8325 48° Northeast  Level Estimated
04:58PM 29.7250 114.9148 48° Northeast  Level Estimated
04:59PM 29.7893 114.9972 48° Northeast  Level Estimated
05:00PM 29.8535 115.0796 48° Northeast  Level Estimated
05:01PM 29.9176 115.1622 48° Northeast  Level Estimated
05:02PM 29.9817 115.2449 48° Northeast  Level Estimated
05:03PM 30.0457 115.3277 48° Northeast  Level Estimated
05:04PM 30.1097 115.4106 48° Northeast  Level Estimated
05:05PM 30.1737 115.4936 48° Northeast  Level Estimated
05:06PM 30.2375 115.5767 48° Northeast  Level Estimated
05:07PM 30.3014 115.6599 48° Northeast  Level Estimated
05:08PM 30.3651 115.7432 48° Northeast  Level Estimated
05:09PM 30.4289 115.8267 48° Northeast  Level Estimated
05:10PM 30.4925 115.9102 48° Northeast  Level Estimated
05:11PM 30.5561 115.9939 49° Northeast  Level Estimated
05:12PM 30.6197 116.0777 49° Northeast  Level Estimated
05:13PM 30.6832 116.1616 49° Northeast  Level Estimated
05:14PM 30.7467 116.2455 49° Northeast  Level Estimated
05:15PM 30.8100 116.3296 49° Northeast  Level Estimated
05:16PM 30.8734 116.4138 49° Northeast  Level Estimated
05:17PM 30.9367 116.4982 49° Northeast  Level Estimated
05:18PM 30.9999 116.5826 49° Northeast  Level Estimated
05:19PM 31.0631 116.6671 49° Northeast  Level Estimated
05:20PM 31.1262 116.7518 49° Northeast  Level Estimated
05:21PM 31.1893 116.8366 49° Northeast  Level Estimated
05:22PM 31.2523 116.9214 49° Northeast  Level Estimated
05:23PM 31.3153 117.0064 49° Northeast  Level Estimated
05:24PM 31.3782 117.0915 49° Northeast  Level Estimated
05:25PM 31.4410 117.1768 49° Northeast  Level Estimated
05:26PM 31.5038 117.2621 49° Northeast  Level Estimated
05:27PM 31.5665 117.3475 49° Northeast  Level Estimated
05:28PM 31.6292 117.4331 49° Northeast  Level Estimated
05:29PM 31.6918 117.5188 49° Northeast  Level Estimated
05:30PM 31.7544 117.6046 49° Northeast  Level Estimated
05:31PM 31.8169 117.6905 49° Northeast  Level Estimated
05:32PM 31.8793 117.7765 49° Northeast  Level Estimated
05:33PM 31.9417 117.8627 50° Northeast  Level Estimated
05:34PM 32.0040 117.9490 50° Northeast  Level Estimated
05:35PM 32.0663 118.0353 50° Northeast  Level Estimated
05:36PM 32.1285 118.1218 50° Northeast  Level Estimated
05:37PM 32.1907 118.2085 50° Northeast  Level Estimated
05:38PM 32.2527 118.2952 50° Northeast  Level Estimated
05:39PM 32.3148 118.3820 50° Northeast  Level Estimated
05:40PM 32.3767 118.4690 50° Northeast  Level Estimated
05:41PM 32.4386 118.5561 50° Northeast  Level Estimated
05:42PM 32.5005 118.6433 50° Northeast  Level Estimated
05:43PM 32.5623 118.7306 50° Northeast  Level Estimated
05:44PM 32.6240 118.8181 50° Northeast  Level Estimated
05:45PM 32.6857 118.9056 50° Northeast  Level Estimated
05:46PM 32.7473 118.9933 50° Northeast  Level Estimated
05:47PM 32.8088 119.0811 50° Northeast  Level Estimated
05:48PM 32.8703 119.1691 50° Northeast  Level Estimated
05:49PM 32.9318 119.2571 50° Northeast  Level Estimated
05:50PM 32.9931 119.3453 50° Northeast  Level Estimated
05:51PM 33.0544 119.4336 50° Northeast  Level Estimated
05:52PM 33.1157 119.5220 50° Northeast  Level Estimated
05:53PM 33.1769 119.6106 50° Northeast  Level Estimated
05:54PM 33.2380 119.6993 50° Northeast  Level Estimated
05:55PM 33.2990 119.7881 51° Northeast  Level Estimated
05:56PM 33.3600 119.8770 51° Northeast  Level Estimated
05:57PM 33.4210 119.9660 51° Northeast  Level Estimated
05:58PM 33.4818 120.0552 51° Northeast  Level Estimated
05:59PM 33.5426 120.1445 51° Northeast  Level Estimated
06:00PM 33.6034 120.2339 51° Northeast  Level Estimated
06:01PM 33.6640 120.3235 51° Northeast  Level Estimated
06:02PM 33.7246 120.4131 51° Northeast  Level Estimated
06:03PM 33.7852 120.5029 51° Northeast  Level Estimated
06:04PM 33.8456 120.5929 51° Northeast  Level Estimated
06:05PM 33.9061 120.6829 51° Northeast  Level Estimated
06:06PM 33.9664 120.7731 51° Northeast  Level Estimated
06:07PM 34.0267 120.8634 51° Northeast  Level Estimated
06:08PM 34.0869 120.9538 51° Northeast  Level Estimated
06:09PM 34.1470 121.0444 51° Northeast  Level Estimated
06:10PM 34.2071 121.1351 51° Northeast  Level Estimated
06:11PM 34.2671 121.2259 51° Northeast  Level Estimated
06:12PM 34.3271 121.3169 51° Northeast  Level Estimated
06:13PM 34.3870 121.4080 51° Northeast  Level Estimated
06:14PM 34.4468 121.4992 51° Northeast  Level Estimated
06:15PM 34.5065 121.5905 52° Northeast  Level Estimated
06:16PM 34.5662 121.6820 52° Northeast  Level Estimated
06:17PM 34.6258 121.7736 52° Northeast  Level Estimated
06:18PM 34.6853 121.8654 52° Northeast  Level Estimated
06:19PM 34.7448 121.9572 52° Northeast  Level Estimated
06:20PM 34.8042 122.0492 52° Northeast  Level Estimated
06:21PM 34.8635 122.1414 52° Northeast  Level Estimated
06:22PM 34.9228 122.2336 52° Northeast  Level Estimated
06:23PM 34.9820 122.3260 52° Northeast  Level Estimated
06:24PM 35.0411 122.4186 52° Northeast  Level Estimated
06:25PM 35.1002 122.5113 52° Northeast  Level Estimated
06:26PM 35.1591 122.6040 52° Northeast  Level Estimated
06:27PM 35.2181 122.6970 52° Northeast  Level Estimated
06:28PM 35.2769 122.7901 52° Northeast  Level Estimated
06:29PM 35.3357 122.8833 52° Northeast  Level Estimated
06:30PM 35.3944 122.9766 52° Northeast  Level Estimated
06:31PM 35.4530 123.0701 52° Northeast  Level Estimated
06:31PM 36.3170 126.9960 52° Northeast 437 503 28,100  Level FlightAware
06:32PM 35.5115 123.1637 52° Northeast  Level Estimated
06:32PM 36.3900 127.0030 North 435 501 27,500  Level FlightAware
06:33PM 36.4490 127.0020 359° North 433 498 27,000 -1,320 Descending FlightAware
06:33PM 36.5490 126.9980 358° North 420 483 25,900 -2,400 Descending FlightAware
06:34PM 36.6470 126.9940 358° North 431 496 23,200 -2,280 Descending FlightAware
06:35PM 36.7110 126.9920 359° North 434 499 22,700 -420 Descending FlightAware
06:36PM 36.7930 126.9880 358° North 434 499 22,700  Level FlightAware
06:36PM 36.8540 126.9850 358° North 434 499 22,700  Level FlightAware
06:37PM 36.9360 126.9820 358° North 434 499 22,700  Level FlightAware
06:38PM 37.0380 126.9770 358° North 434 499 22,700 -2,880 Level FlightAware
06:40PM 37.0470 126.5150 272° West 353 406 15,000 -3,780 Descending FlightAware
06:40PM 37.0960 126.4560 316° Northwest 353 406 13,700 -1,740 Descending FlightAware
06:41PM 37.1540 126.3950 320° Northwest 340 391 12,400 -1,620 Descending FlightAware
06:42PM 37.2050 126.3410 320° Northwest 321 369 11,300 -840 Descending FlightAware
06:43PM 37.2640 126.2780 320° Northwest 313 360 11,100 -180 Descending FlightAware
06:43PM 37.2980 126.2400 318° Northwest 313 360 11,100 -1,260 Level FlightAware
06:46PM 37.4401 126.4147 44° Northeast  Level Estimated
06:47PM 37.4691 126.4505 44° Northeast  Level Estimated
06:47PM 37.4560 126.1650 44° Northeast 264 304 6,500  Level FlightAware
06:47PM 37.4860 126.1710 North 264 304 6,500 -960 Level FlightAware
06:47PM 37.5140 126.1780 11° North 261 300 5,700 -1,020 Descending FlightAware
06:48PM 37.5500 126.1860 10° North 259 298 5,600 -180 Descending FlightAware
06:51PM 37.4691 126.4505 111° Southeast  Level Estimated
06:52PM 37.4691 126.4505 205° Southwest  Level Estimated
06:53PM 37.4691 126.4505 335° Northwest  Level Estimated
06:54PM 37.4691 126.4505 335° Northwest  Level Estimated
06:55PM 37.4691 126.4505 335° Northwest  Level Estimated
06:56PM 37.4691 126.4505 335° Northwest  Level Estimated
06:57PM 37.4691 126.4505 335° Northwest  Level Estimated
06:58PM 37.4691 126.4505 335° Northwest  Level Estimated
06:59PM 37.4691 126.4505 335° Northwest  Level Estimated
07:00PM 37.4691 126.4505 335° Northwest  Level Estimated
07:01PM 37.4691 126.4505 335° Northwest  Level Estimated
07:02PM 37.4691 126.4505 335° Northwest  Level Estimated
07:03PM 37.4691 126.4505 335° Northwest  Level Estimated
07:04PM 37.4691 126.4505 335° Northwest  Level Estimated
07:05PM 37.4691 126.4505 335° Northwest  Level Estimated
07:06PM 37.4691 126.4505 335° Northwest  Level Estimated
07:07PM 37.4691 126.4505 335° Northwest  Level Estimated
07:08PM 37.4691 126.4505 335° Northwest  Level Estimated
07:09PM 37.4691 126.4505 335° Northwest  Level Estimated
07:10PM 37.4691 126.4505 335° Northwest  Level Estimated